sensor_id;sensor_type;location;lat;lon;timestamp;pressure;altitude;pressure_sealevel;temperature;humidity
37078;BME280;22989;55.998;37.212;2023-02-11T00:02:01;-11298.94;;;-145.39;55.46
37078;BME280;22989;55.998;37.212;2023-02-11T00:04:29;-11298.94;;;-145.39;55.54
37078;BME280;22989;55.998;37.212;2023-02-11T00:06:55;-11298.94;;;-145.39;55.39
37078;BME280;22989;55.998;37.212;2023-02-11T00:09:21;-11298.94;;;-145.39;55.34
37078;BME280;22989;55.998;37.212;2023-02-11T00:11:46;-11298.94;;;-145.39;55.31
37078;BME280;22989;55.998;37.212;2023-02-11T00:14:12;-11298.94;;;-145.39;55.44
37078;BME280;22989;55.998;37.212;2023-02-11T00:16:37;-11298.94;;;-145.39;55.27
37078;BME280;22989;55.998;37.212;2023-02-11T00:19:03;-11298.94;;;-145.39;55.35
37078;BME280;22989;55.998;37.212;2023-02-11T00:21:31;-11298.94;;;-145.39;55.41
37078;BME280;22989;55.998;37.212;2023-02-11T00:23:57;-11298.94;;;-145.39;55.13
37078;BME280;22989;55.998;37.212;2023-02-11T00:26:30;-11298.94;;;-145.39;55.12
37078;BME280;22989;55.998;37.212;2023-02-11T00:28:56;-11298.94;;;-145.39;55.23
37078;BME280;22989;55.998;37.212;2023-02-11T00:31:22;-11298.94;;;-145.39;55.27
37078;BME280;22989;55.998;37.212;2023-02-11T00:33:48;-11298.94;;;-145.39;55.39
37078;BME280;22989;55.998;37.212;2023-02-11T00:36:20;-11298.94;;;-145.39;55.28
37078;BME280;22989;55.998;37.212;2023-02-11T00:38:47;-11298.94;;;-145.39;55.51
37078;BME280;22989;55.998;37.212;2023-02-11T00:41:13;-11298.94;;;-145.39;55.27
37078;BME280;22989;55.998;37.212;2023-02-11T00:43:39;-11298.94;;;-145.39;55.37
37078;BME280;22989;55.998;37.212;2023-02-11T00:46:06;-11298.94;;;-145.39;55.35
37078;BME280;22989;55.998;37.212;2023-02-11T00:48:32;-11298.94;;;-145.39;55.51
37078;BME280;22989;55.998;37.212;2023-02-11T00:50:59;-11298.94;;;-145.39;55.59
37078;BME280;22989;55.998;37.212;2023-02-11T00:53:25;-11298.94;;;-145.39;55.63
37078;BME280;22989;55.998;37.212;2023-02-11T00:55:51;-11298.94;;;-145.39;55.62
37078;BME280;22989;55.998;37.212;2023-02-11T00:58:17;-11298.94;;;-145.39;55.56
37078;BME280;22989;55.998;37.212;2023-02-11T01:00:42;-11298.94;;;-145.39;55.63
37078;BME280;22989;55.998;37.212;2023-02-11T01:03:08;-11298.94;;;-145.39;55.61
37078;BME280;22989;55.998;37.212;2023-02-11T01:05:34;-11298.94;;;-145.39;55.76
37078;BME280;22989;55.998;37.212;2023-02-11T01:07:59;-11298.94;;;-145.39;55.92
37078;BME280;22989;55.998;37.212;2023-02-11T01:10:25;-11298.94;;;-145.39;55.83
37078;BME280;22989;55.998;37.212;2023-02-11T01:12:51;-11298.94;;;-145.39;55.96
37078;BME280;22989;55.998;37.212;2023-02-11T01:15:18;-11298.94;;;-145.39;55.95
37078;BME280;22989;55.998;37.212;2023-02-11T01:17:44;-11298.94;;;-145.39;56.03
37078;BME280;22989;55.998;37.212;2023-02-11T01:20:18;-11298.94;;;-145.39;56.02
37078;BME280;22989;55.998;37.212;2023-02-11T01:22:44;-11298.94;;;-145.39;56.00
37078;BME280;22989;55.998;37.212;2023-02-11T01:25:10;-11298.94;;;-145.39;56.05
37078;BME280;22989;55.998;37.212;2023-02-11T01:27:36;-11298.94;;;-145.39;55.95
37078;BME280;22989;55.998;37.212;2023-02-11T01:30:03;-11298.94;;;-145.39;56.05
37078;BME280;22989;55.998;37.212;2023-02-11T01:32:29;-11298.94;;;-145.39;56.07
37078;BME280;22989;55.998;37.212;2023-02-11T01:34:54;-11298.94;;;-145.39;56.16
37078;BME280;22989;55.998;37.212;2023-02-11T01:37:20;-11298.94;;;-145.39;55.98
37078;BME280;22989;55.998;37.212;2023-02-11T01:39:46;-11298.94;;;-145.39;56.00
37078;BME280;22989;55.998;37.212;2023-02-11T01:42:15;-11298.94;;;-145.39;55.95
37078;BME280;22989;55.998;37.212;2023-02-11T01:44:41;-11298.94;;;-145.39;55.80
37078;BME280;22989;55.998;37.212;2023-02-11T01:47:08;-11298.94;;;-145.39;55.66
37078;BME280;22989;55.998;37.212;2023-02-11T01:49:39;-11298.94;;;-145.39;55.27
37078;BME280;22989;55.998;37.212;2023-02-11T01:52:14;-11298.94;;;-145.39;55.22
37078;BME280;22989;55.998;37.212;2023-02-11T01:54:48;-11298.94;;;-145.39;54.92
37078;BME280;22989;55.998;37.212;2023-02-11T01:57:35;-11298.94;;;-145.39;54.41
37078;BME280;22989;55.998;37.212;2023-02-11T02:00:24;-11298.94;;;-145.39;54.17
37078;BME280;22989;55.998;37.212;2023-02-11T02:03:02;-11298.94;;;-145.39;53.77
37078;BME280;22989;55.998;37.212;2023-02-11T02:05:34;-11298.94;;;-145.39;53.72
37078;BME280;22989;55.998;37.212;2023-02-11T02:10:50;-11298.94;;;-145.39;53.17
37078;BME280;22989;55.998;37.212;2023-02-11T02:13:19;-11298.94;;;-145.39;52.83
37078;BME280;22989;55.998;37.212;2023-02-11T02:15:56;-11298.94;;;-145.39;52.46
37078;BME280;22989;55.998;37.212;2023-02-11T02:23:48;-11298.94;;;-145.39;51.68
37078;BME280;22989;55.998;37.212;2023-02-11T02:37:43;-11298.94;;;-145.39;50.80
37078;BME280;22989;55.998;37.212;2023-02-11T02:40:19;-11298.94;;;-145.39;50.78
37078;BME280;22989;55.998;37.212;2023-02-11T02:42:45;-11298.94;;;-145.39;50.60
37078;BME280;22989;55.998;37.212;2023-02-11T02:45:12;-11298.94;;;-145.39;50.62
37078;BME280;22989;55.998;37.212;2023-02-11T02:47:38;-11298.94;;;-145.39;50.56
37078;BME280;22989;55.998;37.212;2023-02-11T02:50:05;-11298.94;;;-145.39;50.57
37078;BME280;22989;55.998;37.212;2023-02-11T02:56:00;-11298.94;;;-145.39;50.42
37078;BME280;22989;55.998;37.212;2023-02-11T03:01:37;-11298.94;;;-145.39;50.68
37078;BME280;22989;55.998;37.212;2023-02-11T03:04:28;-11298.94;;;-145.39;50.87
37078;BME280;22989;55.998;37.212;2023-02-11T03:09:58;-11298.94;;;-145.39;51.24
37078;BME280;22989;55.998;37.212;2023-02-11T03:12:28;-11298.94;;;-145.39;51.35
37078;BME280;22989;55.998;37.212;2023-02-11T03:14:54;-11298.94;;;-145.39;51.38
37078;BME280;22989;55.998;37.212;2023-02-11T03:17:22;-11298.94;;;-145.39;51.55
37078;BME280;22989;55.998;37.212;2023-02-11T03:19:49;-11298.94;;;-145.39;51.75
37078;BME280;22989;55.998;37.212;2023-02-11T03:22:19;-11298.94;;;-145.39;51.71
37078;BME280;22989;55.998;37.212;2023-02-11T03:24:47;-11298.94;;;-145.39;52.24
37078;BME280;22989;55.998;37.212;2023-02-11T03:27:20;-11298.94;;;-145.39;52.88
37078;BME280;22989;55.998;37.212;2023-02-11T03:32:31;-11298.94;;;-145.39;52.09
37078;BME280;22989;55.998;37.212;2023-02-11T03:37:52;-11298.94;;;-145.39;52.10
37078;BME280;22989;55.998;37.212;2023-02-11T03:40:26;-11298.94;;;-145.39;52.33
37078;BME280;22989;55.998;37.212;2023-02-11T03:43:09;-11298.94;;;-145.39;52.18
37078;BME280;22989;55.998;37.212;2023-02-11T03:45:37;-11298.94;;;-145.39;52.27
37078;BME280;22989;55.998;37.212;2023-02-11T03:48:19;-11298.94;;;-145.39;52.41
37078;BME280;22989;55.998;37.212;2023-02-11T03:50:47;-11298.94;;;-145.39;52.63
37078;BME280;22989;55.998;37.212;2023-02-11T03:53:16;-11298.94;;;-145.39;52.85
37078;BME280;22989;55.998;37.212;2023-02-11T03:55:43;-11298.94;;;-145.39;52.86
37078;BME280;22989;55.998;37.212;2023-02-11T03:58:10;-11298.94;;;-145.39;53.17
37078;BME280;22989;55.998;37.212;2023-02-11T04:00:38;-11298.94;;;-145.39;53.19
37078;BME280;22989;55.998;37.212;2023-02-11T04:03:06;-11298.94;;;-145.39;53.44
37078;BME280;22989;55.998;37.212;2023-02-11T04:05:33;-11298.94;;;-145.39;53.78
37078;BME280;22989;55.998;37.212;2023-02-11T04:07:59;-11298.94;;;-145.39;53.91
37078;BME280;22989;55.998;37.212;2023-02-11T04:10:24;-11298.94;;;-145.39;54.08
37078;BME280;22989;55.998;37.212;2023-02-11T04:12:50;-11298.94;;;-145.39;54.00
37078;BME280;22989;55.998;37.212;2023-02-11T04:15:16;-11298.94;;;-145.39;54.23
37078;BME280;22989;55.998;37.212;2023-02-11T04:17:42;-11298.94;;;-145.39;54.40
37078;BME280;22989;55.998;37.212;2023-02-11T04:20:08;-11298.94;;;-145.39;54.51
37078;BME280;22989;55.998;37.212;2023-02-11T04:22:34;-11298.94;;;-145.39;54.75
37078;BME280;22989;55.998;37.212;2023-02-11T04:24:59;-11298.94;;;-145.39;54.72
37078;BME280;22989;55.998;37.212;2023-02-11T04:27:25;-11298.94;;;-145.39;54.89
37078;BME280;22989;55.998;37.212;2023-02-11T04:29:51;-11298.94;;;-145.39;55.10
37078;BME280;22989;55.998;37.212;2023-02-11T04:32:16;-11298.94;;;-145.39;55.27
37078;BME280;22989;55.998;37.212;2023-02-11T04:34:42;-11298.94;;;-145.39;55.41
37078;BME280;22989;55.998;37.212;2023-02-11T04:37:07;-11298.94;;;-145.39;55.45
37078;BME280;22989;55.998;37.212;2023-02-11T04:39:33;-11298.94;;;-145.39;55.38
37078;BME280;22989;55.998;37.212;2023-02-11T04:41:59;-11298.94;;;-145.39;55.47
37078;BME280;22989;55.998;37.212;2023-02-11T04:44:25;-11298.94;;;-145.39;55.58
37078;BME280;22989;55.998;37.212;2023-02-11T04:46:50;-11298.94;;;-145.39;55.80
37078;BME280;22989;55.998;37.212;2023-02-11T04:49:16;-11298.94;;;-145.39;55.69
37078;BME280;22989;55.998;37.212;2023-02-11T04:51:42;-11298.94;;;-145.39;55.56
37078;BME280;22989;55.998;37.212;2023-02-11T04:54:10;-11298.94;;;-145.39;55.25
37078;BME280;22989;55.998;37.212;2023-02-11T04:56:36;-11298.94;;;-145.39;55.27
37078;BME280;22989;55.998;37.212;2023-02-11T04:59:02;-11298.94;;;-145.39;55.19
37078;BME280;22989;55.998;37.212;2023-02-11T05:01:28;-11298.94;;;-145.39;55.24
37078;BME280;22989;55.998;37.212;2023-02-11T05:03:54;-11298.94;;;-145.39;55.11
37078;BME280;22989;55.998;37.212;2023-02-11T05:06:20;-11298.94;;;-145.39;55.03
37078;BME280;22989;55.998;37.212;2023-02-11T05:08:46;-11298.94;;;-145.39;54.85
37078;BME280;22989;55.998;37.212;2023-02-11T05:11:15;-11298.94;;;-145.39;54.98
37078;BME280;22989;55.998;37.212;2023-02-11T05:13:41;-11298.94;;;-145.39;54.68
37078;BME280;22989;55.998;37.212;2023-02-11T05:16:07;-11298.94;;;-145.39;54.95
37078;BME280;22989;55.998;37.212;2023-02-11T05:18:35;-11298.94;;;-145.39;54.72
37078;BME280;22989;55.998;37.212;2023-02-11T05:21:08;-11298.94;;;-145.39;55.01
37078;BME280;22989;55.998;37.212;2023-02-11T05:23:34;-11298.94;;;-145.39;54.97
37078;BME280;22989;55.998;37.212;2023-02-11T05:26:01;-11298.94;;;-145.39;54.81
37078;BME280;22989;55.998;37.212;2023-02-11T05:28:27;-11298.94;;;-145.39;54.98
37078;BME280;22989;55.998;37.212;2023-02-11T05:30:53;-11298.94;;;-145.39;54.99
37078;BME280;22989;55.998;37.212;2023-02-11T05:33:18;-11298.94;;;-145.39;54.74
37078;BME280;22989;55.998;37.212;2023-02-11T05:35:44;-11298.94;;;-145.39;54.73
37078;BME280;22989;55.998;37.212;2023-02-11T05:38:09;-11298.94;;;-145.39;54.61
37078;BME280;22989;55.998;37.212;2023-02-11T05:40:35;-11298.94;;;-145.39;54.49
37078;BME280;22989;55.998;37.212;2023-02-11T05:43:01;-11298.94;;;-145.39;54.49
37078;BME280;22989;55.998;37.212;2023-02-11T05:45:27;-11298.94;;;-145.39;54.15
37078;BME280;22989;55.998;37.212;2023-02-11T05:47:52;-11298.94;;;-145.39;54.06
37078;BME280;22989;55.998;37.212;2023-02-11T05:50:18;-11298.94;;;-145.39;53.98
37078;BME280;22989;55.998;37.212;2023-02-11T05:52:44;-11298.94;;;-145.39;53.89
37078;BME280;22989;55.998;37.212;2023-02-11T05:55:09;-11298.94;;;-145.39;53.46
37078;BME280;22989;55.998;37.212;2023-02-11T05:57:35;-11298.94;;;-145.39;53.29
37078;BME280;22989;55.998;37.212;2023-02-11T06:00:02;-11298.94;;;-145.39;53.06
37078;BME280;22989;55.998;37.212;2023-02-11T06:02:37;-11298.94;;;-145.39;52.64
37078;BME280;22989;55.998;37.212;2023-02-11T06:05:03;-11298.94;;;-145.39;52.75
37078;BME280;22989;55.998;37.212;2023-02-11T06:07:29;-11298.94;;;-145.39;52.49
37078;BME280;22989;55.998;37.212;2023-02-11T06:09:54;-11298.94;;;-145.39;52.15
37078;BME280;22989;55.998;37.212;2023-02-11T06:12:20;-11298.94;;;-145.39;51.98
37078;BME280;22989;55.998;37.212;2023-02-11T06:14:45;-11298.94;;;-145.39;51.81
37078;BME280;22989;55.998;37.212;2023-02-11T06:17:11;-11298.94;;;-145.39;51.68
37078;BME280;22989;55.998;37.212;2023-02-11T06:19:37;-11298.94;;;-145.39;51.68
37078;BME280;22989;55.998;37.212;2023-02-11T06:22:02;-11298.94;;;-145.39;51.46
37078;BME280;22989;55.998;37.212;2023-02-11T06:24:28;-11298.94;;;-145.39;51.31
37078;BME280;22989;55.998;37.212;2023-02-11T06:26:53;-11298.94;;;-145.39;51.21
37078;BME280;22989;55.998;37.212;2023-02-11T06:29:19;-11298.94;;;-145.39;51.00
37078;BME280;22989;55.998;37.212;2023-02-11T06:31:45;-11298.94;;;-145.39;51.00
37078;BME280;22989;55.998;37.212;2023-02-11T06:34:10;-11298.94;;;-145.39;50.74
37078;BME280;22989;55.998;37.212;2023-02-11T06:36:38;-11298.94;;;-145.39;50.58
37078;BME280;22989;55.998;37.212;2023-02-11T06:39:04;-11298.94;;;-145.39;50.43
37078;BME280;22989;55.998;37.212;2023-02-11T06:41:29;-11298.94;;;-145.39;50.19
37078;BME280;22989;55.998;37.212;2023-02-11T06:43:55;-11298.94;;;-145.39;50.18
37078;BME280;22989;55.998;37.212;2023-02-11T06:46:21;-11298.94;;;-145.39;49.94
37078;BME280;22989;55.998;37.212;2023-02-11T06:48:47;-11298.94;;;-145.39;49.79
37078;BME280;22989;55.998;37.212;2023-02-11T06:51:13;-11298.94;;;-145.39;49.62
37078;BME280;22989;55.998;37.212;2023-02-11T06:53:42;-11298.94;;;-145.39;49.21
37078;BME280;22989;55.998;37.212;2023-02-11T06:56:10;-11298.94;;;-145.39;48.89
37078;BME280;22989;55.998;37.212;2023-02-11T06:58:36;-11298.94;;;-145.39;48.63
37078;BME280;22989;55.998;37.212;2023-02-11T07:01:07;-11298.94;;;-145.39;48.50
37078;BME280;22989;55.998;37.212;2023-02-11T07:03:34;-11298.94;;;-145.39;48.57
37078;BME280;22989;55.998;37.212;2023-02-11T07:06:04;-11298.94;;;-145.39;48.60
37078;BME280;22989;55.998;37.212;2023-02-11T07:08:35;-11298.94;;;-145.39;48.50
37078;BME280;22989;55.998;37.212;2023-02-11T07:11:08;-11298.94;;;-145.39;48.40
37078;BME280;22989;55.998;37.212;2023-02-11T07:13:34;-11298.94;;;-145.39;47.92
37078;BME280;22989;55.998;37.212;2023-02-11T07:16:04;-11298.94;;;-145.39;47.73
37078;BME280;22989;55.998;37.212;2023-02-11T07:18:29;-11298.94;;;-145.39;47.52
37078;BME280;22989;55.998;37.212;2023-02-11T07:20:55;-11298.94;;;-145.39;47.22
37078;BME280;22989;55.998;37.212;2023-02-11T07:23:20;-11298.94;;;-145.39;47.20
37078;BME280;22989;55.998;37.212;2023-02-11T07:25:46;-11298.94;;;-145.39;47.12
37078;BME280;22989;55.998;37.212;2023-02-11T07:28:12;-11298.94;;;-145.39;46.85
37078;BME280;22989;55.998;37.212;2023-02-11T07:30:37;-11298.94;;;-145.39;46.97
37078;BME280;22989;55.998;37.212;2023-02-11T07:33:03;-11298.94;;;-145.39;46.80
37078;BME280;22989;55.998;37.212;2023-02-11T07:35:28;-11298.94;;;-145.39;46.48
37078;BME280;22989;55.998;37.212;2023-02-11T07:37:54;-11298.94;;;-145.39;46.08
37078;BME280;22989;55.998;37.212;2023-02-11T07:40:20;-11298.94;;;-145.39;45.95
37078;BME280;22989;55.998;37.212;2023-02-11T07:42:45;-11298.94;;;-145.39;45.64
37078;BME280;22989;55.998;37.212;2023-02-11T07:45:11;-11298.94;;;-145.39;45.43
37078;BME280;22989;55.998;37.212;2023-02-11T07:47:38;-11298.94;;;-145.39;45.23
37078;BME280;22989;55.998;37.212;2023-02-11T07:50:03;-11298.94;;;-145.39;45.33
37078;BME280;22989;55.998;37.212;2023-02-11T07:52:29;-11298.94;;;-145.39;45.33
37078;BME280;22989;55.998;37.212;2023-02-11T07:54:55;-11298.94;;;-145.39;45.40
37078;BME280;22989;55.998;37.212;2023-02-11T07:57:21;-11298.94;;;-145.39;45.29
37078;BME280;22989;55.998;37.212;2023-02-11T07:59:47;-11298.94;;;-145.39;45.23
37078;BME280;22989;55.998;37.212;2023-02-11T08:02:12;-11298.94;;;-145.39;45.54
37078;BME280;22989;55.998;37.212;2023-02-11T08:04:38;-11298.94;;;-145.39;45.56
37078;BME280;22989;55.998;37.212;2023-02-11T08:07:04;-11298.94;;;-145.39;45.67
37078;BME280;22989;55.998;37.212;2023-02-11T08:09:29;-11298.94;;;-145.39;46.02
37078;BME280;22989;55.998;37.212;2023-02-11T08:11:55;-11298.94;;;-145.39;46.17
37078;BME280;22989;55.998;37.212;2023-02-11T08:14:20;-11298.94;;;-145.39;45.88
37078;BME280;22989;55.998;37.212;2023-02-11T08:16:46;-11298.94;;;-145.39;45.71
37078;BME280;22989;55.998;37.212;2023-02-11T08:19:14;-11298.94;;;-145.39;45.77
37078;BME280;22989;55.998;37.212;2023-02-11T08:21:40;-11298.94;;;-145.39;45.55
37078;BME280;22989;55.998;37.212;2023-02-11T08:24:06;-11298.94;;;-145.39;45.43
37078;BME280;22989;55.998;37.212;2023-02-11T08:26:35;-11298.94;;;-145.39;45.36
37078;BME280;22989;55.998;37.212;2023-02-11T08:29:07;-11298.94;;;-145.39;45.56
37078;BME280;22989;55.998;37.212;2023-02-11T08:31:38;-11298.94;;;-145.39;45.59
37078;BME280;22989;55.998;37.212;2023-02-11T08:34:05;-11298.94;;;-145.39;45.49
37078;BME280;22989;55.998;37.212;2023-02-11T08:36:35;-11298.94;;;-145.39;45.66
37078;BME280;22989;55.998;37.212;2023-02-11T08:39:04;-11298.94;;;-145.39;45.54
37078;BME280;22989;55.998;37.212;2023-02-11T08:41:32;-11298.94;;;-145.39;45.80
37078;BME280;22989;55.998;37.212;2023-02-11T08:43:58;-11298.94;;;-145.39;45.97
37078;BME280;22989;55.998;37.212;2023-02-11T08:46:24;-11298.94;;;-145.39;46.21
37078;BME280;22989;55.998;37.212;2023-02-11T08:48:49;-11298.94;;;-145.39;46.19
37078;BME280;22989;55.998;37.212;2023-02-11T08:51:17;-11298.94;;;-145.39;46.36
37078;BME280;22989;55.998;37.212;2023-02-11T08:53:44;-11298.94;;;-145.39;46.29
37078;BME280;22989;55.998;37.212;2023-02-11T08:56:10;-11298.94;;;-145.39;46.20
37078;BME280;22989;55.998;37.212;2023-02-11T08:58:37;-11298.94;;;-145.39;46.21
37078;BME280;22989;55.998;37.212;2023-02-11T09:01:14;-11298.94;;;-145.39;46.05
37078;BME280;22989;55.998;37.212;2023-02-11T09:03:40;-11298.94;;;-145.39;46.10
37078;BME280;22989;55.998;37.212;2023-02-11T09:06:07;-11298.94;;;-145.39;46.55
37078;BME280;22989;55.998;37.212;2023-02-11T09:08:34;-11298.94;;;-145.39;46.62
37078;BME280;22989;55.998;37.212;2023-02-11T09:11:01;-11298.94;;;-145.39;47.01
37078;BME280;22989;55.998;37.212;2023-02-11T09:13:26;-11298.94;;;-145.39;46.99
37078;BME280;22989;55.998;37.212;2023-02-11T09:15:52;-11298.94;;;-145.39;47.05
37078;BME280;22989;55.998;37.212;2023-02-11T09:18:18;-11298.94;;;-145.39;47.47
37078;BME280;22989;55.998;37.212;2023-02-11T09:20:43;-11298.94;;;-145.39;47.37
37078;BME280;22989;55.998;37.212;2023-02-11T09:23:09;-11298.94;;;-145.39;47.46
37078;BME280;22989;55.998;37.212;2023-02-11T09:25:38;-11298.94;;;-145.39;47.79
37078;BME280;22989;55.998;37.212;2023-02-11T09:28:04;-11298.94;;;-145.39;47.84
37078;BME280;22989;55.998;37.212;2023-02-11T09:30:30;-11298.94;;;-145.39;48.06
37078;BME280;22989;55.998;37.212;2023-02-11T09:32:55;-11298.94;;;-145.39;48.11
37078;BME280;22989;55.998;37.212;2023-02-11T09:35:21;-11298.94;;;-145.39;48.21
37078;BME280;22989;55.998;37.212;2023-02-11T09:37:46;-11298.94;;;-145.39;48.20
37078;BME280;22989;55.998;37.212;2023-02-11T09:40:14;-11298.94;;;-145.39;48.16
37078;BME280;22989;55.998;37.212;2023-02-11T09:42:46;-11298.94;;;-145.39;48.23
37078;BME280;22989;55.998;37.212;2023-02-11T09:45:20;-11298.94;;;-145.39;48.27
37078;BME280;22989;55.998;37.212;2023-02-11T09:48:16;-11298.94;;;-145.39;48.23
37078;BME280;22989;55.998;37.212;2023-02-11T09:50:46;-11298.94;;;-145.39;48.28
37078;BME280;22989;55.998;37.212;2023-02-11T09:53:24;-11298.94;;;-145.39;48.40
37078;BME280;22989;55.998;37.212;2023-02-11T09:55:52;-11298.94;;;-145.39;48.47
37078;BME280;22989;55.998;37.212;2023-02-11T10:00:59;-11298.94;;;-145.39;48.54
37078;BME280;22989;55.998;37.212;2023-02-11T10:06:33;-11298.94;;;-145.39;48.72
37078;BME280;22989;55.998;37.212;2023-02-11T10:12:10;-11298.94;;;-145.39;48.82
37078;BME280;22989;55.998;37.212;2023-02-11T10:20:30;-11298.94;;;-145.39;48.84
37078;BME280;22989;55.998;37.212;2023-02-11T10:23:00;-11298.94;;;-145.39;48.84
37078;BME280;22989;55.998;37.212;2023-02-11T10:25:33;-11298.94;;;-145.39;48.92
37078;BME280;22989;55.998;37.212;2023-02-11T10:28:10;-11298.94;;;-145.39;48.87
37078;BME280;22989;55.998;37.212;2023-02-11T10:30:41;-11298.94;;;-145.39;48.95
37078;BME280;22989;55.998;37.212;2023-02-11T10:33:19;-11298.94;;;-145.39;48.81
37078;BME280;22989;55.998;37.212;2023-02-11T10:35:47;-11298.94;;;-145.39;48.88
37078;BME280;22989;55.998;37.212;2023-02-11T10:38:13;-11298.94;;;-145.39;48.77
37078;BME280;22989;55.998;37.212;2023-02-11T10:40:39;-11298.94;;;-145.39;48.79
37078;BME280;22989;55.998;37.212;2023-02-11T10:43:09;-11298.94;;;-145.39;48.60
37078;BME280;22989;55.998;37.212;2023-02-11T10:45:38;-11298.94;;;-145.39;48.67
37078;BME280;22989;55.998;37.212;2023-02-11T10:48:05;-11298.94;;;-145.39;48.65
37078;BME280;22989;55.998;37.212;2023-02-11T10:50:32;-11298.94;;;-145.39;48.68
37078;BME280;22989;55.998;37.212;2023-02-11T10:53:16;-11298.94;;;-145.39;48.79
37078;BME280;22989;55.998;37.212;2023-02-11T10:55:54;-11298.94;;;-145.39;48.75
37078;BME280;22989;55.998;37.212;2023-02-11T10:58:24;-11298.94;;;-145.39;48.87
37078;BME280;22989;55.998;37.212;2023-02-11T11:00:52;-11298.94;;;-145.39;48.92
37078;BME280;22989;55.998;37.212;2023-02-11T11:05:49;-11298.94;;;-145.39;49.10
37078;BME280;22989;55.998;37.212;2023-02-11T11:08:16;-11298.94;;;-145.39;49.16
37078;BME280;22989;55.998;37.212;2023-02-11T11:10:45;-11298.94;;;-145.39;49.20
37078;BME280;22989;55.998;37.212;2023-02-11T11:16:07;-11298.94;;;-145.39;49.08
37078;BME280;22989;55.998;37.212;2023-02-11T11:18:33;-11298.94;;;-145.39;49.15
37078;BME280;22989;55.998;37.212;2023-02-11T11:21:02;-11298.94;;;-145.39;48.97
37078;BME280;22989;55.998;37.212;2023-02-11T11:23:30;-11298.94;;;-145.39;48.94
37078;BME280;22989;55.998;37.212;2023-02-11T11:26:09;-11298.94;;;-145.39;48.75
37078;BME280;22989;55.998;37.212;2023-02-11T11:31:13;-11298.94;;;-145.39;48.61
37078;BME280;22989;55.998;37.212;2023-02-11T11:33:41;-11298.94;;;-145.39;48.57
37078;BME280;22989;55.998;37.212;2023-02-11T11:36:11;-11298.94;;;-145.39;48.55
37078;BME280;22989;55.998;37.212;2023-02-11T11:38:45;-11298.94;;;-145.39;48.57
37078;BME280;22989;55.998;37.212;2023-02-11T11:41:21;-11298.94;;;-145.39;48.38
37078;BME280;22989;55.998;37.212;2023-02-11T11:43:57;-11298.94;;;-145.39;48.30
37078;BME280;22989;55.998;37.212;2023-02-11T11:46:38;-11298.94;;;-145.39;48.30
37078;BME280;22989;55.998;37.212;2023-02-11T11:49:34;-11298.94;;;-145.39;48.38
37078;BME280;22989;55.998;37.212;2023-02-11T11:54:55;-11298.94;;;-145.39;48.18
37078;BME280;22989;55.998;37.212;2023-02-11T11:57:26;-11298.94;;;-145.39;48.55
37078;BME280;22989;55.998;37.212;2023-02-11T11:59:56;-11298.94;;;-145.39;48.23
37078;BME280;22989;55.998;37.212;2023-02-11T12:02:39;-11298.94;;;-145.39;48.40
37078;BME280;22989;55.998;37.212;2023-02-11T12:05:25;-11298.94;;;-145.39;48.47
37078;BME280;22989;55.998;37.212;2023-02-11T12:24:26;-11298.94;;;-145.39;48.87
37078;BME280;22989;55.998;37.212;2023-02-11T12:32:45;-11298.94;;;-145.39;49.06
37078;BME280;22989;55.998;37.212;2023-02-11T12:43:39;-11298.94;;;-145.39;49.83
37078;BME280;22989;55.998;37.212;2023-02-11T12:46:26;-11298.94;;;-145.39;49.74
37078;BME280;22989;55.998;37.212;2023-02-11T12:57:18;-11298.94;;;-145.39;50.12
37078;BME280;22989;55.998;37.212;2023-02-11T12:59:51;-11298.94;;;-145.39;50.21
37078;BME280;22989;55.998;37.212;2023-02-11T13:02:30;-11298.94;;;-145.39;50.44
37078;BME280;22989;55.998;37.212;2023-02-11T13:05:04;-11298.94;;;-145.39;50.88
37078;BME280;22989;55.998;37.212;2023-02-11T13:07:35;-11298.94;;;-145.39;51.39
37078;BME280;22989;55.998;37.212;2023-02-11T13:12:50;-11298.94;;;-145.39;52.69
37078;BME280;22989;55.998;37.212;2023-02-11T13:15:35;-11298.94;;;-145.39;53.22
37078;BME280;22989;55.998;37.212;2023-02-11T13:23:51;-11298.94;;;-145.39;54.77
37078;BME280;22989;55.998;37.212;2023-02-11T13:26:32;-11298.94;;;-145.39;55.20
37078;BME280;22989;55.998;37.212;2023-02-11T13:31:55;-11298.94;;;-145.39;56.39
37078;BME280;22989;55.998;37.212;2023-02-11T13:37:23;-11298.94;;;-145.39;56.85
37078;BME280;22989;55.998;37.212;2023-02-11T13:42:50;-11298.94;;;-145.39;57.18
37078;BME280;22989;55.998;37.212;2023-02-11T13:48:35;-11298.94;;;-145.39;57.56
37078;BME280;22989;55.998;37.212;2023-02-11T13:51:10;-11298.94;;;-145.39;57.84
37078;BME280;22989;55.998;37.212;2023-02-11T13:53:49;-11298.94;;;-145.39;58.02
37078;BME280;22989;55.998;37.212;2023-02-11T13:56:38;-11298.94;;;-145.39;58.31
37078;BME280;22989;55.998;37.212;2023-02-11T13:59:42;-11298.94;;;-145.39;58.49
37078;BME280;22989;55.998;37.212;2023-02-11T14:02:05;-11298.94;;;-145.39;58.77
37078;BME280;22989;55.998;37.212;2023-02-11T14:23:45;-11298.94;;;-145.39;60.18
37078;BME280;22989;55.998;37.212;2023-02-11T14:28:41;-11298.94;;;-145.39;60.29
37078;BME280;22989;55.998;37.212;2023-02-11T14:31:11;-11298.94;;;-145.39;60.64
37078;BME280;22989;55.998;37.212;2023-02-11T14:33:54;-11298.94;;;-145.39;60.78
37078;BME280;22989;55.998;37.212;2023-02-11T14:39:23;-11298.94;;;-145.39;61.00
37078;BME280;22989;55.998;37.212;2023-02-11T14:41:51;-11298.94;;;-145.39;60.99
37078;BME280;22989;55.998;37.212;2023-02-11T14:44:24;-11298.94;;;-145.39;61.15
37078;BME280;22989;55.998;37.212;2023-02-11T14:46:53;-11298.94;;;-145.39;61.15
37078;BME280;22989;55.998;37.212;2023-02-11T14:49:30;-11298.94;;;-145.39;61.55
37078;BME280;22989;55.998;37.212;2023-02-11T14:52:18;-11298.94;;;-145.39;61.84
37078;BME280;22989;55.998;37.212;2023-02-11T14:54:48;-11298.94;;;-145.39;61.85